Time;durP1;ratioP1;P1;durP2;ratioP2;P2;SDS_P1;SDS_P2;PMS_P1;PMS_P2;Temp;Humidity;BMP_temperature;BMP_pressure;BME280_temperature;BME280_humidity;BME280_pressure;Samples;Min_cycle;Max_cycle;Signal;HPM_P1;HPM_P2
2021/06/11 05:02:39;;;;;;;;;;;14.20;99.90;;;;;;4293475;22;20102;-96
2021/06/11 05:05:34;;;;;;;;;;;14.40;99.90;;;;;;4975457;23;19933;31
2021/06/11 05:08:02;;;;;;;;;;;14.50;99.90;;;;;;4907856;29;19911;-96
2021/06/11 05:10:29;;;;;;;;;;;14.60;99.90;;;;;;4903115;29;19936;-96
2021/06/11 05:13:01;;;;;;;;;;;14.70;99.90;;;;;;4892811;29;19928;-96
2021/06/11 05:15:37;;;;;;;;;;;14.80;99.90;;;;;;4900065;29;19918;-96
2021/06/11 05:18:08;;;;;;;;;;;15.00;99.90;;;;;;4909566;29;19967;-96
2021/06/11 05:20:47;;;;;;;;;;;15.00;99.90;;;;;;4909572;29;19947;-96
2021/06/11 05:23:30;;;;;;;;;;;15.10;99.90;;;;;;4905647;29;19927;-96
2021/06/11 05:45:44;;;;;;;;;;;15.80;99.90;;;;;;5632834;23;19936;-96
2021/06/11 06:06:07;;;;;;;;;;;17.20;99.90;;;;;;6138066;22;19920;31
2021/06/11 06:16:56;;;;;;;;;;;17.60;99.90;;;;;;5070012;23;19916;-96
2021/06/11 06:19:37;;;;;;;;;;;17.60;99.90;;;;;;4974863;28;19941;-96
2021/06/11 06:22:44;;;;;;;;;;;17.40;99.90;;;;;;4995313;28;19910;-96
2021/06/11 06:25:25;;;;;;;;;;;17.10;99.90;;;;;;4919499;29;19934;-96
2021/06/11 06:28:07;;;;;;;;;;;17.20;99.90;;;;;;4901174;29;19927;-96
2021/06/11 06:30:34;;;;;;;;;;;17.60;99.90;;;;;;4913761;29;19934;-96
2021/06/11 06:33:02;;;;;;;;;;;18.00;99.90;;;;;;4908794;29;19961;-96
2021/06/11 06:35:29;;;;;;;;;;;18.40;99.90;;;;;;4924901;29;19927;-96
2021/06/11 06:37:56;;;;;;;;;;;18.60;99.90;;;;;;4908946;29;19927;-96
2021/06/11 06:40:23;;;;;;;;;;;18.60;99.90;;;;;;4909461;29;19927;-96
2021/06/11 06:42:51;;;;;;;;;;;18.50;99.90;;;;;;4912909;29;20035;-96
2021/06/11 06:45:19;;;;;;;;;;;18.40;99.90;;;;;;4911036;29;20397;-96
2021/06/11 06:47:47;;;;;;;;;;;18.50;99.90;;;;;;4897820;29;20331;-96
2021/06/11 06:50:19;;;;;;;;;;;18.50;99.90;;;;;;4918162;29;20018;-96
2021/06/11 06:52:56;;;;;;;;;;;18.70;99.90;;;;;;4933927;29;19950;-96
2021/06/11 06:55:24;;;;;;;;;;;18.70;99.90;;;;;;4932496;29;19933;-96
2021/06/11 06:57:51;;;;;;;;;;;18.90;99.90;;;;;;4930250;29;19986;-96
2021/06/11 07:00:22;;;;;;;;;;;18.80;99.90;;;;;;4947030;29;19933;-96
2021/06/11 07:02:56;;;;;;;;;;;18.70;99.90;;;;;;4944701;29;19927;-96
2021/06/11 07:05:23;;;;;;;;;;;18.50;99.90;;;;;;4928013;29;19934;-96
2021/06/11 07:07:50;;;;;;;;;;;18.40;99.90;;;;;;4942804;29;19934;-96
2021/06/11 07:10:17;;;;;;;;;;;18.30;99.90;;;;;;4984518;28;19930;-96
2021/06/11 09:24:30;;;;;;;;;;;20.50;99.90;;;;;;5839542;23;20283;-96
2021/06/11 09:27:43;;;;;;;;;;;20.40;99.90;;;;;;5004027;28;19910;-93
2021/06/11 09:31:03;;;;;;;;;;;20.10;99.90;;;;;;5008652;28;19924;-95
2021/06/11 09:33:48;;;;;;;;;;;20.00;99.90;;;;;;5008180;28;19926;-95
2021/06/11 09:36:23;;;;;;;;;;;20.70;99.90;;;;;;4984658;28;19962;-95
2021/06/11 09:39:12;;;;;;;;;;;20.90;99.90;;;;;;4977845;28;19926;-96
2021/06/11 09:41:49;;;;;;;;;;;21.20;99.90;;;;;;4982595;28;19926;-93
2021/06/11 09:44:24;;;;;;;;;;;21.40;99.90;;;;;;4980280;28;19926;-96
2021/06/11 09:46:51;;;;;;;;;;;21.80;99.90;;;;;;4979789;28;19996;-94
2021/06/11 09:49:18;;;;;;;;;;;21.90;99.90;;;;;;4979125;28;19925;-96
2021/06/11 09:52:01;;;;;;;;;;;21.70;99.90;;;;;;4979342;28;19936;-91
2021/06/11 09:54:28;;;;;;;;;;;21.20;99.90;;;;;;4983487;28;19977;-90
2021/06/11 09:56:55;;;;;;;;;;;21.00;99.90;;;;;;5000190;28;19925;-92
2021/06/11 09:59:41;;;;;;;;;;;20.90;99.90;;;;;;4984244;28;19930;-90
2021/06/11 10:02:12;;;;;;;;;;;20.90;99.90;;;;;;4982927;28;19925;-93
2021/06/11 10:04:41;;;;;;;;;;;20.60;99.90;;;;;;4998861;28;19964;-94
2021/06/11 10:07:14;;;;;;;;;;;20.60;99.90;;;;;;4983268;28;19932;-94
2021/06/11 10:09:41;;;;;;;;;;;20.60;99.90;;;;;;4981984;28;20004;-94
2021/06/11 10:12:08;;;;;;;;;;;20.40;99.90;;;;;;4982654;28;19980;-96
2021/06/11 10:14:36;;;;;;;;;;;20.30;99.90;;;;;;4982071;28;20013;-93
2021/06/11 10:17:05;;;;;;;;;;;20.00;99.90;;;;;;4981804;28;20440;-93
2021/06/11 10:19:32;;;;;;;;;;;19.70;99.90;;;;;;4982355;28;19976;-93
2021/06/11 10:22:05;;;;;;;;;;;19.40;99.90;;;;;;4982233;28;19926;-93
2021/06/11 10:36:59;;;;;;;;;;;18.50;99.90;;;;;;5333847;22;19926;-96
2021/06/11 10:39:53;;;;;;;;;;;18.90;99.90;;;;;;5013853;28;19933;-95
2021/06/11 11:27:34;;;;;;;;;;;20.80;99.90;;;;;;5810050;22;19941;-95
2021/06/11 11:48:43;;;;;;;;;;;20.40;99.90;;;;;;5473747;22;19910;-96
2021/06/11 12:26:26;;;;;;;;;;;17.60;99.90;;;;;;4159588;23;21480;31
2021/06/11 12:28:56;;;;;;;;;;;17.00;99.90;;;;;;4936767;29;19934;-96
2021/06/11 12:34:19;;;;;;;;;;;16.00;99.90;;;;;;4994768;23;19910;-96
2021/06/11 12:36:49;;;;;;;;;;;15.60;99.90;;;;;;5001217;28;19929;-96
2021/06/11 12:39:16;;;;;;;;;;;15.50;99.90;;;;;;5003007;28;19985;-96
2021/06/11 12:41:43;;;;;;;;;;;15.40;99.90;;;;;;4991308;23;19925;-96
2021/06/11 12:46:54;;;;;;;;;;;15.70;99.90;;;;;;5009026;23;19965;-96
2021/06/11 12:52:53;;;;;;;;;;;;;;;;;;;;;
2021/06/11 13:20:22;;;;;;;;;;;17.30;99.90;;;;;;5539014;23;19965;-96
2021/06/11 13:23:20;;;;;;;;;;;17.60;99.90;;;;;;4996770;23;19969;-96
2021/06/11 13:26:05;;;;;;;;;;;17.80;99.90;;;;;;4970200;23;19911;-96
2021/06/11 13:28:56;;;;;;;;;;;17.70;99.90;;;;;;5004505;23;19917;-96
2021/06/11 13:31:38;;;;;;;;;;;17.60;99.90;;;;;;4986291;28;19934;-96
2021/06/11 13:34:05;;;;;;;;;;;17.40;99.90;;;;;;4995805;23;19927;-96
2021/06/11 13:36:35;;;;;;;;;;;17.30;99.90;;;;;;4964247;29;19926;-96
2021/06/11 13:53:23;;;;;;;;;;;16.80;99.90;;;;;;5579223;23;19927;-96
2021/06/11 13:55:52;;;;;;;;;;;16.70;99.90;;;;;;4970057;28;19933;-95
2021/06/11 13:58:19;;;;;;;;;;;16.50;99.90;;;;;;4983537;28;20028;-96
2021/06/11 14:00:47;;;;;;;;;;;16.20;99.90;;;;;;4967301;28;19932;-94
2021/06/11 14:03:16;;;;;;;;;;;16.00;99.90;;;;;;4967046;28;19950;-96
2021/06/11 14:05:43;;;;;;;;;;;15.80;99.90;;;;;;4966908;28;19926;-96
2021/06/11 14:08:10;;;;;;;;;;;15.60;99.90;;;;;;4970327;28;20287;-94
2021/06/11 14:10:37;;;;;;;;;;;15.30;99.90;;;;;;4969875;28;19927;-95
2021/06/11 14:13:04;;;;;;;;;;;15.10;99.90;;;;;;4967966;28;19927;-96
2021/06/11 14:15:32;;;;;;;;;;;15.00;99.90;;;;;;4965704;28;19932;-95
2021/06/11 14:18:00;;;;;;;;;;;15.00;99.90;;;;;;4968534;28;19957;-96
2021/06/11 14:20:27;;;;;;;;;;;15.00;99.90;;;;;;4967297;28;19926;-94
2021/06/11 14:23:17;;;;;;;;;;;15.00;99.90;;;;;;4965041;28;19926;-96
2021/06/11 14:26:02;;;;;;;;;;;15.00;99.90;;;;;;4967214;28;19961;-94
2021/06/11 14:28:30;;;;;;;;;;;15.20;99.90;;;;;;4963111;28;20012;-93
2021/06/11 14:30:57;;;;;;;;;;;15.50;99.90;;;;;;4962757;28;19941;-94
2021/06/11 14:33:23;;;;;;;;;;;15.60;99.90;;;;;;4963324;28;20273;-95
2021/06/11 14:35:51;;;;;;;;;;;15.80;99.90;;;;;;4963151;28;19934;-94
2021/06/11 14:38:17;;;;;;;;;;;16.00;99.90;;;;;;4963044;28;19934;-96
2021/06/11 14:40:47;;;;;;;;;;;16.00;99.90;;;;;;4964648;28;19936;-96
2021/06/11 14:43:21;;;;;;;;;;;16.20;99.90;;;;;;4972306;28;19930;-95
2021/06/11 14:45:48;;;;;;;;;;;16.20;99.90;;;;;;4962368;28;19932;-95
2021/06/11 14:48:18;;;;;;;;;;;16.20;99.90;;;;;;4963793;28;20021;-95
2021/06/11 14:50:45;;;;;;;;;;;16.30;99.90;;;;;;4962329;28;19926;-95
2021/06/11 14:53:17;;;;;;;;;;;16.40;99.90;;;;;;4962174;28;19968;-96
2021/06/11 14:55:49;;;;;;;;;;;16.50;99.90;;;;;;4959432;29;19926;-95
2021/06/11 14:58:16;;;;;;;;;;;16.90;99.90;;;;;;4958693;29;19930;-95
2021/06/11 15:00:44;;;;;;;;;;;17.80;99.90;;;;;;4961973;28;20021;-96
2021/06/11 15:03:13;;;;;;;;;;;18.90;99.90;;;;;;4959125;29;20009;-96
2021/06/11 15:06:03;;;;;;;;;;;20.30;99.90;;;;;;4958671;29;20042;-96
2021/06/11 15:08:55;;;;;;;;;;;21.80;99.90;;;;;;4963639;29;20009;-96
2021/06/11 15:11:42;;;;;;;;;;;;;;;;;;;;;
2021/06/11 15:28:28;;;;;;;;;;;19.70;99.90;;;;;;4866346;29;20435;-96
2021/06/11 15:42:37;;;;;;;;;;;19.40;99.90;;;;;;4943098;28;19934;-96
2021/06/11 15:45:12;;;;;;;;;;;19.10;99.90;;;;;;4942552;29;19930;-96
2021/06/11 15:47:41;;;;;;;;;;;18.90;99.90;;;;;;4944610;28;19934;-96
2021/06/11 15:50:08;;;;;;;;;;;18.70;99.90;;;;;;4941183;28;19978;-95
2021/06/11 15:52:36;;;;;;;;;;;18.50;99.90;;;;;;4941249;28;19911;-96
2021/06/11 15:55:03;;;;;;;;;;;18.50;99.90;;;;;;4941836;29;20351;-95
2021/06/11 15:57:30;;;;;;;;;;;18.60;99.90;;;;;;4940312;29;20351;-95
2021/06/11 15:59:57;;;;;;;;;;;18.80;99.90;;;;;;4941126;29;20331;-96
2021/06/11 16:02:25;;;;;;;;;;;18.70;99.90;;;;;;4938772;29;20005;-95
2021/06/11 16:04:52;;;;;;;;;;;18.70;99.90;;;;;;4940303;29;20375;-96
2021/06/11 16:07:21;;;;;;;;;;;18.80;99.90;;;;;;4939638;29;19933;-95
2021/06/11 16:09:49;;;;;;;;;;;18.90;99.90;;;;;;4940426;28;19927;-96
2021/06/11 16:12:35;;;;;;;;;;;18.90;99.90;;;;;;4938686;29;19933;-96
2021/06/11 16:15:56;;;;;;;;;;;19.20;99.90;;;;;;4960340;29;19925;-96
